Terminal Aerodrome Forecast
Issued by NWS

Home | Current Version | Previous Version | Text Only | Print | Product List | Glossary On
Versions: 1 2 3 4 5 6 7 8 9 10 11 12 13 14 15 16 17 18
000
FTAK31 PANC 052342
TAFADU
TAF
PADU 052342Z 0600/0624 35024G35KT P6SM -SHRA BKN014 BKN025
      TEMPO 0600/0601 32025G35KT
     FM060700 31024G33KT P6SM VCSH BKN035=

USA.gov is the U.S. government's official web portal to all federal, state and local government web resources and services.